Time;durP1;ratioP1;P1;durP2;ratioP2;P2;SDS_P1;SDS_P2;PMS_P1;PMS_P2;Temp;Humidity;BMP_temperature;BMP_pressure;BME280_temperature;BME280_humidity;BME280_pressure;Samples;Min_cycle;Max_cycle;Signal;HPM_P1;HPM_P2
2021/10/25 00:01:19;;;;;;;12.10;7.03;;;4.40;99.90;;;;;;5043905;28;20060;-76
2021/10/25 00:03:45;;;;;;;16.25;8.32;;;4.40;99.90;;;;;;5028048;28;20478;-75
2021/10/25 00:06:12;;;;;;;10.13;7.50;;;4.30;99.90;;;;;;5029607;28;20102;-76
2021/10/25 00:08:40;;;;;;;24.75;12.60;;;4.30;99.90;;;;;;5047607;28;20060;-76
2021/10/25 00:11:06;;;;;;;17.92;10.88;;;4.10;99.90;;;;;;5047401;28;20491;-76
2021/10/25 00:13:33;;;;;;;22.25;10.63;;;4.10;99.90;;;;;;5013328;28;20415;-76
2021/10/25 00:16:01;;;;;;;19.65;11.70;;;4.00;99.90;;;;;;5046625;28;20052;-75
2021/10/25 00:18:30;;;;;;;23.67;11.52;;;3.90;99.90;;;;;;5025867;28;20567;-76
2021/10/25 00:20:56;;;;;;;25.67;12.77;;;3.80;99.90;;;;;;5045279;28;20140;-76
2021/10/25 00:23:24;;;;;;;23.75;12.70;;;3.80;99.90;;;;;;5028215;28;20073;-77
2021/10/25 00:25:52;;;;;;;26.23;13.35;;;3.90;99.90;;;;;;5018734;28;20116;-76
2021/10/25 00:28:19;;;;;;;19.55;11.63;;;3.80;99.90;;;;;;5024863;28;20053;-76
2021/10/25 00:30:46;;;;;;;21.50;11.38;;;3.90;99.90;;;;;;5046338;28;20063;-76
2021/10/25 00:33:12;;;;;;;24.90;11.93;;;3.90;99.90;;;;;;5026245;28;20049;-76
2021/10/25 00:35:39;;;;;;;17.70;10.45;;;3.90;99.90;;;;;;5026603;28;20061;-76
2021/10/25 00:38:06;;;;;;;18.42;10.70;;;3.80;99.90;;;;;;5027951;28;20284;-75
2021/10/25 00:40:33;;;;;;;16.90;9.52;;;3.60;99.90;;;;;;5010876;28;20068;-75
2021/10/25 00:43:00;;;;;;;19.80;9.80;;;3.40;99.90;;;;;;5028228;28;20060;-76
2021/10/25 00:45:27;;;;;;;16.48;9.85;;;3.30;99.90;;;;;;5026557;28;20083;-76
2021/10/25 00:47:54;;;;;;;18.88;10.50;;;3.40;99.90;;;;;;5026540;28;20495;-76
2021/10/25 00:50:20;;;;;;;15.77;9.85;;;3.30;99.90;;;;;;5039457;28;20054;-76
2021/10/25 00:52:47;;;;;;;20.50;10.50;;;3.30;99.90;;;;;;5044658;28;20053;-76
2021/10/25 00:55:14;;;;;;;20.30;11.40;;;3.20;99.90;;;;;;5044768;28;20132;-76
2021/10/25 00:57:41;;;;;;;19.55;10.65;;;3.10;99.90;;;;;;5011142;28;20292;-76
2021/10/25 01:00:10;;;;;;;19.27;11.38;;;3.10;99.90;;;;;;5046026;28;20057;-76
2021/10/25 01:02:38;;;;;;;20.42;11.07;;;3.00;99.90;;;;;;5011695;28;20470;-76
2021/10/25 01:05:08;;;;;;;23.48;10.82;;;3.00;99.90;;;;;;5026910;28;20072;-75
2021/10/25 01:07:37;;;;;;;21.42;13.32;;;3.00;99.90;;;;;;5011290;28;20053;-75
2021/10/25 01:10:05;;;;;;;20.73;12.48;;;2.90;99.90;;;;;;5025610;28;20114;-76
2021/10/25 01:12:33;;;;;;;19.25;12.40;;;3.00;99.90;;;;;;5027678;28;20064;-76
2021/10/25 01:14:59;;;;;;;21.88;13.10;;;3.00;99.90;;;;;;5026715;28;20056;-76
2021/10/25 01:17:27;;;;;;;21.70;11.80;;;2.90;99.90;;;;;;5010660;28;20287;-76
2021/10/25 01:19:55;;;;;;;20.67;12.57;;;2.90;99.90;;;;;;5029665;28;20053;-76
2021/10/25 01:22:23;;;;;;;24.23;13.60;;;3.10;99.90;;;;;;5014474;28;20052;-75
2021/10/25 01:24:51;;;;;;;24.35;12.63;;;3.00;99.90;;;;;;5032477;28;20236;-75
2021/10/25 01:27:19;;;;;;;23.05;12.55;;;2.90;99.90;;;;;;5030049;28;20044;-75
2021/10/25 01:29:49;;;;;;;19.88;11.63;;;2.90;99.90;;;;;;5014259;28;20049;-75
2021/10/25 01:32:16;;;;;;;24.85;12.15;;;3.00;99.90;;;;;;5046945;28;20128;-75
2021/10/25 01:34:43;;;;;;;25.77;13.10;;;3.00;99.90;;;;;;4996630;28;20048;-75
2021/10/25 01:37:12;;;;;;;23.92;12.75;;;3.00;99.90;;;;;;5010907;28;20519;-75
2021/10/25 01:39:42;;;;;;;24.15;13.32;;;3.00;99.90;;;;;;5028269;28;20095;-75
2021/10/25 01:42:09;;;;;;;22.05;11.88;;;2.90;99.90;;;;;;5011206;28;20232;-75
2021/10/25 01:44:36;;;;;;;20.30;12.18;;;2.80;99.90;;;;;;4998404;28;20414;-75
2021/10/25 01:47:04;;;;;;;22.80;13.13;;;2.90;99.90;;;;;;5000007;28;20488;-74
2021/10/25 01:49:31;;;;;;;28.25;13.27;;;2.90;99.90;;;;;;5018642;28;20216;-76
2021/10/25 01:52:00;;;;;;;30.08;13.98;;;2.90;99.90;;;;;;5027289;28;20049;-76
2021/10/25 01:54:27;;;;;;;23.77;13.02;;;2.90;99.90;;;;;;5021894;28;20126;-76
2021/10/25 01:56:54;;;;;;;20.88;12.52;;;2.90;99.90;;;;;;5030408;28;20103;-76
2021/10/25 01:59:21;;;;;;;22.08;13.05;;;2.90;99.90;;;;;;5027766;28;20068;-76
2021/10/25 02:01:48;;;;;;;21.65;12.55;;;2.90;99.90;;;;;;4994705;28;20663;-76
2021/10/25 02:04:15;;;;;;;24.15;13.23;;;2.80;99.90;;;;;;5010948;28;20056;-77
2021/10/25 02:06:41;;;;;;;23.52;13.70;;;2.80;99.90;;;;;;5025488;28;20128;-76
2021/10/25 02:09:09;;;;;;;26.88;13.25;;;2.80;99.90;;;;;;5012869;28;20506;-76
2021/10/25 02:11:36;;;;;;;23.48;12.20;;;2.70;99.90;;;;;;5023138;28;20137;-76
2021/10/25 02:14:06;;;;;;;27.85;14.00;;;2.60;99.90;;;;;;5014247;28;20080;-76
2021/10/25 02:16:33;;;;;;;22.95;12.57;;;2.70;99.90;;;;;;5012797;28;20427;-76
2021/10/25 02:19:00;;;;;;;24.20;13.68;;;2.60;99.90;;;;;;5033825;28;20056;-76
2021/10/25 02:21:37;;;;;;;25.17;13.82;;;2.60;99.90;;;;;;5030289;28;20041;-76
2021/10/25 02:24:04;;;;;;;26.15;13.68;;;2.70;99.90;;;;;;5031762;28;20053;-76
2021/10/25 02:26:37;;;;;;;25.52;13.52;;;2.70;99.90;;;;;;5015209;28;20490;-75
2021/10/25 02:29:04;;;;;;;25.77;14.30;;;2.70;99.90;;;;;;5000291;28;20550;-76
2021/10/25 02:31:31;;;;;;;24.85;15.38;;;2.70;99.90;;;;;;5015319;28;20659;-76
2021/10/25 02:33:57;;;;;;;23.10;14.00;;;2.60;99.90;;;;;;5031654;28;20123;-76
2021/10/25 02:36:24;;;;;;;34.10;13.90;;;2.60;99.90;;;;;;5029716;28;20052;-77
2021/10/25 02:38:51;;;;;;;27.00;15.05;;;2.50;99.90;;;;;;5014584;28;20053;-76
2021/10/25 02:41:19;;;;;;;24.23;13.15;;;2.50;99.90;;;;;;5030976;28;20599;-76
2021/10/25 02:43:47;;;;;;;27.23;13.13;;;2.40;99.90;;;;;;5017680;28;20049;-76
2021/10/25 02:46:14;;;;;;;25.08;14.75;;;2.30;99.90;;;;;;5033516;28;20083;-76
2021/10/25 02:48:44;;;;;;;28.70;13.60;;;2.20;99.90;;;;;;5038368;28;20052;-77
2021/10/25 02:51:13;;;;;;;34.30;15.77;;;2.20;99.90;;;;;;5028100;28;20049;-76
2021/10/25 02:53:40;;;;;;;30.02;14.52;;;2.20;99.90;;;;;;5038666;28;20522;-76
2021/10/25 02:56:07;;;;;;;28.92;15.13;;;2.30;99.90;;;;;;4996265;28;20320;-76
2021/10/25 02:58:35;;;;;;;34.75;15.88;;;2.30;99.90;;;;;;5029413;28;20053;-76
2021/10/25 03:01:02;;;;;;;29.83;15.75;;;2.30;99.90;;;;;;5024816;28;20255;-76
2021/10/25 03:03:29;;;;;;;25.75;15.55;;;2.40;99.90;;;;;;5029808;28;20053;-76
2021/10/25 03:05:57;;;;;;;31.45;15.82;;;2.30;99.90;;;;;;5029651;28;20134;-76
2021/10/25 03:08:23;;;;;;;24.75;13.43;;;2.30;99.90;;;;;;5010425;28;20037;-76
2021/10/25 03:10:54;;;;;;;28.23;14.75;;;2.10;99.90;;;;;;5027038;28;20053;-75
2021/10/25 03:13:21;;;;;;;27.95;14.02;;;2.10;99.90;;;;;;5046237;28;20106;-76
2021/10/25 03:15:48;;;;;;;35.85;14.77;;;2.20;99.90;;;;;;5013218;28;20111;-77
2021/10/25 03:18:17;;;;;;;29.70;14.73;;;2.10;99.90;;;;;;5029568;28;20086;-76
2021/10/25 03:20:44;;;;;;;26.35;14.43;;;2.10;99.90;;;;;;5013095;28;20048;-76
2021/10/25 03:23:11;;;;;;;19.02;13.07;;;2.00;99.90;;;;;;5012670;28;20053;-76
2021/10/25 03:25:39;;;;;;;28.02;13.48;;;2.00;99.90;;;;;;5028512;28;20065;-76
2021/10/25 03:28:06;;;;;;;27.85;13.80;;;1.90;99.90;;;;;;5034385;28;20056;-76
2021/10/25 03:30:34;;;;;;;27.13;14.13;;;1.90;99.90;;;;;;5026865;28;21600;-76
2021/10/25 03:33:06;;;;;;;25.10;13.85;;;1.90;99.90;;;;;;4995555;28;20049;-76
2021/10/25 03:35:43;;;;;;;24.98;13.88;;;1.90;99.90;;;;;;5011169;28;20060;-76
2021/10/25 03:38:13;;;;;;;23.92;13.38;;;1.90;99.90;;;;;;5062111;28;20060;-76
2021/10/25 03:40:43;;;;;;;32.55;14.68;;;1.90;99.90;;;;;;5010617;28;20363;-76
2021/10/25 03:43:10;;;;;;;30.75;14.38;;;1.90;99.90;;;;;;5028373;28;20095;-76
2021/10/25 03:46:29;;;;;;;28.73;14.48;;;1.90;99.90;;;;;;5009376;28;20076;-76
2021/10/25 03:48:33;;;;;;;29.73;15.05;;;1.90;99.90;;;;;;4999510;28;20052;-76
2021/10/25 03:51:00;;;;;;;33.35;16.55;;;1.80;99.90;;;;;;4992794;28;20452;-76
2021/10/25 03:56:16;;;;;;;37.88;16.33;;;2.00;99.90;;;;;;5027272;28;20367;-76
2021/10/25 04:29:29;;;;;;;37.17;16.67;;;1.40;99.90;;;;;;5061372;28;20789;-76
2021/10/25 04:31:57;;;;;;;40.83;17.70;;;1.40;99.90;;;;;;5050851;28;20045;-76
2021/10/25 04:34:24;;;;;;;36.45;17.10;;;1.50;99.90;;;;;;5022363;28;20512;-76
2021/10/25 04:36:51;;;;;;;34.28;17.23;;;1.50;99.90;;;;;;5017509;28;20057;-76
2021/10/25 04:39:42;;;;;;;34.35;17.02;;;1.50;99.90;;;;;;5014758;28;20068;-76
2021/10/25 04:42:16;;;;;;;36.15;19.05;;;1.50;99.90;;;;;;5027921;28;20045;-76
2021/10/25 04:44:49;;;;;;;40.45;18.88;;;1.60;99.90;;;;;;5025255;28;20060;-76
2021/10/25 04:47:16;;;;;;;44.45;20.40;;;1.70;99.90;;;;;;5029468;28;20052;-76
2021/10/25 04:49:48;;;;;;;41.78;20.13;;;1.80;99.90;;;;;;5056088;28;20111;-76
2021/10/25 04:52:41;;;;;;;42.05;19.95;;;1.80;99.90;;;;;;4995741;28;20060;-76
2021/10/25 04:55:08;;;;;;;40.50;19.98;;;1.90;99.90;;;;;;5023782;28;20041;-76
2021/10/25 04:57:35;;;;;;;46.67;19.02;;;1.90;99.90;;;;;;5025359;28;20045;-77
2021/10/25 05:00:03;;;;;;;37.53;17.33;;;1.90;99.90;;;;;;5025792;28;20098;-76
2021/10/25 05:02:30;;;;;;;31.73;16.88;;;1.60;99.90;;;;;;5024296;28;20045;-75
2021/10/25 05:04:58;;;;;;;43.97;17.35;;;1.70;99.90;;;;;;5012513;28;20049;-76
2021/10/25 05:07:25;;;;;;;38.70;18.17;;;1.60;99.90;;;;;;5027277;28;20049;-77
2021/10/25 05:09:52;;;;;;;39.25;17.58;;;1.70;99.90;;;;;;5027207;28;20098;-76
2021/10/25 05:12:18;;;;;;;43.80;20.73;;;1.60;99.90;;;;;;5018664;28;20053;-77
2021/10/25 05:14:45;;;;;;;48.05;21.35;;;1.60;99.90;;;;;;5024206;28;20046;-76
2021/10/25 05:17:12;;;;;;;47.65;22.15;;;1.70;99.90;;;;;;4990417;28;20059;-76
2021/10/25 05:19:45;;;;;;;46.95;22.88;;;1.80;99.90;;;;;;5040082;28;20123;-76
2021/10/25 05:22:23;;;;;;;48.90;21.58;;;1.90;99.90;;;;;;5022899;28;20148;-76
2021/10/25 05:24:50;;;;;;;44.75;20.88;;;1.90;99.90;;;;;;5024092;28;20531;-77
2021/10/25 05:27:21;;;;;;;45.10;21.55;;;2.00;99.90;;;;;;5006946;28;20053;-76
2021/10/25 05:29:47;;;;;;;49.03;23.05;;;2.00;99.90;;;;;;5007852;28;20068;-77
2021/10/25 05:32:14;;;;;;;54.53;24.05;;;1.90;99.90;;;;;;5042540;28;20049;-76
2021/10/25 05:34:41;;;;;;;50.72;23.88;;;2.00;99.90;;;;;;5024432;28;20490;-77
2021/10/25 05:37:08;;;;;;;47.85;24.02;;;2.10;99.90;;;;;;5044264;28;20106;-77
2021/10/25 05:39:36;;;;;;;48.35;23.15;;;2.20;99.90;;;;;;5026440;28;20749;-77
2021/10/25 05:42:07;;;;;;;47.33;24.55;;;2.30;99.90;;;;;;5009307;28;20051;-76
2021/10/25 05:44:35;;;;;;;51.33;23.85;;;2.30;99.90;;;;;;5027036;28;20191;-76
2021/10/25 05:47:02;;;;;;;39.78;19.80;;;2.20;99.90;;;;;;5010311;28;20048;-76
2021/10/25 05:49:29;;;;;;;46.28;21.10;;;2.20;99.90;;;;;;5009369;28;20232;-76
2021/10/25 05:51:56;;;;;;;41.40;21.38;;;2.20;99.90;;;;;;5010754;28;20048;-77
2021/10/25 05:54:25;;;;;;;41.78;22.00;;;2.20;99.90;;;;;;5026154;28;20495;-77
2021/10/25 05:56:55;;;;;;;41.33;21.33;;;2.20;99.90;;;;;;5021084;28;20052;-77
2021/10/25 05:59:25;;;;;;;45.25;23.83;;;2.40;99.90;;;;;;5026862;28;20578;-77
2021/10/25 06:01:57;;;;;;;45.90;24.25;;;2.40;99.90;;;;;;5025201;28;20518;-77
2021/10/25 06:04:26;;;;;;;49.67;24.13;;;2.40;99.90;;;;;;5041090;28;20547;-77
2021/10/25 06:07:16;;;;;;;43.60;22.15;;;2.40;99.90;;;;;;5016102;28;20391;-76
2021/10/25 06:09:44;;;;;;;41.58;21.65;;;2.40;99.90;;;;;;5022186;28;20499;-77
2021/10/25 06:12:19;;;;;;;40.03;20.52;;;2.40;99.90;;;;;;5045732;28;20419;-76
2021/10/25 06:15:10;;;;;;;43.47;21.35;;;2.50;99.90;;;;;;5040100;28;20075;-77
2021/10/25 06:17:51;;;;;;;41.72;22.17;;;2.60;99.90;;;;;;5015478;28;20054;-77
2021/10/25 06:20:25;;;;;;;41.40;20.75;;;2.70;99.90;;;;;;5010576;28;20443;-76
2021/10/25 06:22:53;;;;;;;41.08;20.95;;;2.80;99.90;;;;;;5011025;28;20072;-77
2021/10/25 06:25:23;;;;;;;40.13;22.23;;;2.80;99.90;;;;;;4992934;28;20037;-77
2021/10/25 06:28:14;;;;;;;40.53;19.60;;;2.80;99.90;;;;;;5014118;28;20037;-76
2021/10/25 06:31:00;;;;;;;44.05;22.38;;;2.90;99.90;;;;;;5026303;28;20045;-76
2021/10/25 06:33:51;;;;;;;41.30;21.50;;;3.00;99.90;;;;;;4996284;28;20084;-76
2021/10/25 06:36:56;;;;;;;44.63;22.75;;;3.00;99.90;;;;;;4995386;28;20052;-76
2021/10/25 06:39:40;;;;;;;37.80;22.58;;;3.10;99.90;;;;;;4989263;28;20054;-76
2021/10/25 06:42:07;;;;;;;41.20;21.45;;;3.10;99.90;;;;;;5013070;28;20447;-77
2021/10/25 06:44:57;;;;;;;37.78;19.98;;;3.10;99.90;;;;;;5029670;28;20482;-76
2021/10/25 06:47:31;;;;;;;35.15;19.52;;;3.00;99.90;;;;;;5028311;28;20045;-76
2021/10/25 06:50:04;;;;;;;36.35;21.17;;;3.10;99.90;;;;;;5012850;28;20518;-76
2021/10/25 06:52:36;;;;;;;42.53;20.42;;;3.10;99.90;;;;;;5011229;28;20076;-76
2021/10/25 06:55:05;;;;;;;30.50;19.10;;;3.20;99.90;;;;;;5011113;28;20053;-77
2021/10/25 06:57:33;;;;;;;39.13;19.15;;;3.10;99.90;;;;;;5024685;28;20076;-76
2021/10/25 07:00:05;;;;;;;35.42;20.58;;;3.20;99.90;;;;;;5014224;28;20056;-77
2021/10/25 07:02:32;;;;;;;33.80;20.65;;;3.10;99.90;;;;;;5035575;28;20500;-76
2021/10/25 07:05:05;;;;;;;30.80;18.88;;;3.10;99.90;;;;;;5011221;28;20051;-76
2021/10/25 07:07:32;;;;;;;36.60;21.08;;;3.10;99.90;;;;;;4996291;28;20052;-76
2021/10/25 07:09:59;;;;;;;45.60;27.55;;;3.10;99.90;;;;;;5029251;28;20064;-76
2021/10/25 07:12:27;;;;;;;37.70;22.55;;;3.10;99.90;;;;;;4995854;28;20494;-76
2021/10/25 07:14:56;;;;;;;31.27;19.73;;;3.10;99.90;;;;;;5016355;28;20055;-76
2021/10/25 07:17:32;;;;;;;44.10;21.23;;;3.10;99.90;;;;;;5017390;28;20483;-76
2021/10/25 07:20:14;;;;;;;41.83;21.58;;;3.20;99.90;;;;;;5013061;28;20578;-76
2021/10/25 08:02:59;;;;;;;26.35;16.38;;;3.80;99.90;;;;;;5028954;28;19920;-76
2021/10/25 08:05:06;;;;;;;29.83;16.75;;;3.90;99.90;;;;;;5010647;28;20049;-77
2021/10/25 08:07:53;;;;;;;26.83;16.02;;;4.00;99.90;;;;;;5046858;28;20073;-77
2021/10/25 08:10:39;;;;;;;31.52;17.77;;;4.10;99.90;;;;;;5014300;28;20082;-73
2021/10/25 08:13:15;;;;;;;25.80;16.10;;;4.30;99.90;;;;;;5010979;28;20051;-73
2021/10/25 08:15:44;;;;;;;26.13;16.83;;;4.40;99.90;;;;;;5044657;28;20041;-76
2021/10/25 08:18:41;;;;;;;24.38;15.25;;;4.70;99.90;;;;;;5029274;28;20045;-76
2021/10/25 08:21:09;;;;;;;22.38;15.25;;;5.00;99.90;;;;;;5028634;28;20044;-76
2021/10/25 08:23:36;;;;;;;17.90;11.80;;;5.40;99.90;;;;;;5032020;28;20415;-76
2021/10/25 08:26:20;;;;;;;17.67;11.77;;;5.80;99.90;;;;;;5028480;28;20515;-76
2021/10/25 08:28:50;;;;;;;22.58;13.38;;;6.10;99.90;;;;;;5029252;28;20052;-77
2021/10/25 08:31:17;;;;;;;17.00;10.75;;;6.30;99.90;;;;;;5028172;28;20072;-76
2021/10/25 08:34:04;;;;;;;22.23;12.75;;;6.50;99.90;;;;;;5012470;28;20060;-76
2021/10/25 08:42:20;;;;;;;18.20;12.55;;;7.40;99.90;;;;;;5003704;28;20045;-76
2021/10/25 08:44:57;;;;;;;14.00;11.20;;;7.80;99.90;;;;;;5024636;28;20061;-77
2021/10/25 08:47:27;;;;;;;17.52;12.18;;;8.00;99.90;;;;;;5022391;28;20052;-76
2021/10/25 08:49:56;;;;;;;14.57;10.75;;;8.20;99.90;;;;;;5028192;28;20099;-75
2021/10/25 08:52:24;;;;;;;12.57;11.27;;;8.50;99.90;;;;;;5026346;28;20134;-77
2021/10/25 08:54:52;;;;;;;14.45;10.63;;;8.70;99.90;;;;;;5020911;28;20418;-75
2021/10/25 08:57:20;;;;;;;14.13;11.40;;;8.80;99.90;;;;;;5007847;28;20081;-76
2021/10/25 09:00:04;;;;;;;13.40;10.98;;;9.00;99.90;;;;;;4992092;28;20053;-75
2021/10/25 09:02:34;;;;;;;12.23;10.75;;;9.30;99.90;;;;;;5000446;28;20052;-75
2021/10/25 09:05:08;;;;;;;16.15;12.57;;;9.60;99.90;;;;;;5026750;28;20053;-75
2021/10/25 09:08:10;;;;;;;13.15;11.75;;;9.80;99.90;;;;;;5027122;28;20304;-75
2021/10/25 09:10:44;;;;;;;15.68;11.68;;;9.90;99.90;;;;;;4999800;28;20053;-75
2021/10/25 09:13:18;;;;;;;13.30;11.88;;;10.00;99.90;;;;;;5001266;28;20053;-76
2021/10/25 09:15:52;;;;;;;12.95;11.73;;;10.20;99.90;;;;;;4990846;28;20342;-76
2021/10/25 09:18:42;;;;;;;13.82;12.43;;;10.30;99.90;;;;;;5019500;28;20320;-76
2021/10/25 09:21:14;;;;;;;14.25;12.85;;;10.30;99.90;;;;;;5009240;28;20052;-75
2021/10/25 09:23:46;;;;;;;13.93;12.55;;;10.60;99.90;;;;;;5012063;28;20057;-75
2021/10/25 09:26:18;;;;;;;14.75;12.50;;;10.70;99.90;;;;;;5004431;28;20076;-75
2021/10/25 09:28:50;;;;;;;13.55;12.45;;;10.60;99.90;;;;;;5024577;28;20069;-75
2021/10/25 09:31:24;;;;;;;12.82;11.48;;;10.50;99.90;;;;;;5043291;28;20052;-74
2021/10/25 09:33:59;;;;;;;14.63;13.27;;;10.50;99.90;;;;;;5025995;28;20514;-74
2021/10/25 09:36:53;;;;;;;12.75;11.55;;;10.40;99.90;;;;;;5045471;28;20041;-75
2021/10/25 09:39:40;;;;;;;13.27;11.60;;;10.30;99.90;;;;;;5026620;28;20879;-75
2021/10/25 09:42:23;;;;;;;12.50;11.20;;;10.40;99.90;;;;;;5024256;28;20045;-75
2021/10/25 09:51:13;;;;;;;14.05;11.82;;;10.60;99.90;;;;;;5016013;28;20056;-75
2021/10/25 09:54:04;;;;;;;13.10;11.80;;;10.80;99.90;;;;;;5037492;28;20283;-75
2021/10/25 09:56:34;;;;;;;13.27;12.05;;;10.90;99.90;;;;;;5014133;28;20041;-75
2021/10/25 09:59:35;;;;;;;13.55;12.40;;;11.10;99.90;;;;;;5048579;28;20047;-75
2021/10/25 10:02:04;;;;;;;12.98;11.98;;;11.20;99.90;;;;;;5013633;28;20041;-76
2021/10/25 10:04:33;;;;;;;12.95;11.57;;;11.20;99.90;;;;;;5031767;28;20045;-75
2021/10/25 10:07:18;;;;;;;12.75;11.55;;;11.40;99.90;;;;;;5014540;28;20064;-76
2021/10/25 10:09:51;;;;;;;13.52;12.43;;;11.40;99.90;;;;;;5029181;28;20057;-76
2021/10/25 10:12:21;;;;;;;13.48;12.27;;;11.40;99.90;;;;;;5032013;28;20053;-76
2021/10/25 10:14:50;;;;;;;14.82;13.35;;;11.50;99.90;;;;;;4996487;28;20045;-75
2021/10/25 10:17:20;;;;;;;13.90;12.80;;;11.70;99.90;;;;;;5027704;28;20469;-76
2021/10/25 10:19:50;;;;;;;13.35;12.30;;;11.80;99.90;;;;;;4994035;28;20107;-76
2021/10/25 10:22:42;;;;;;;14.43;13.27;;;12.00;99.90;;;;;;5045298;28;20044;-75
2021/10/25 10:25:38;;;;;;;14.02;13.18;;;12.20;99.90;;;;;;5029295;28;20063;-76
2021/10/25 10:28:12;;;;;;;13.45;12.65;;;12.40;99.90;;;;;;5014998;28;20088;-75
2021/10/25 10:30:56;;;;;;;14.88;13.50;;;12.60;99.90;;;;;;5013164;28;20057;-75
2021/10/25 10:33:45;;;;;;;14.50;13.60;;;12.90;99.90;;;;;;5047747;28;20411;-76
2021/10/25 10:36:14;;;;;;;14.32;13.43;;;12.90;99.90;;;;;;5014130;28;20514;-75
2021/10/25 10:39:06;;;;;;;14.18;13.20;;;13.20;99.90;;;;;;5043687;28;20681;-76
2021/10/25 10:41:57;;;;;;;14.15;13.32;;;13.40;99.90;;;;;;5024928;28;20456;-76
2021/10/25 10:44:52;;;;;;;14.07;13.18;;;13.60;99.90;;;;;;5029245;28;20134;-75
2021/10/25 10:47:20;;;;;;;14.23;13.32;;;13.70;99.90;;;;;;5030510;28;20053;-76
2021/10/25 10:49:50;;;;;;;14.30;13.30;;;14.00;99.90;;;;;;5027146;28;20110;-75
2021/10/25 10:52:39;;;;;;;14.43;13.57;;;14.20;99.90;;;;;;5026419;28;20048;-76
2021/10/25 10:55:25;;;;;;;15.70;14.55;;;14.30;99.90;;;;;;5046509;28;20929;-77
2021/10/25 11:00:47;;;;;;;14.80;13.90;;;13.80;99.90;;;;;;5045325;28;20049;-76
2021/10/25 11:03:23;;;;;;;14.50;13.00;;;13.70;99.90;;;;;;5047455;28;20044;-76
2021/10/25 11:06:07;;;;;;;15.05;14.05;;;13.50;99.90;;;;;;5012743;28;20056;-75
2021/10/25 11:08:40;;;;;;;14.88;13.88;;;13.60;99.90;;;;;;5029827;28;20060;-76
2021/10/25 11:11:14;;;;;;;14.82;13.93;;;13.60;99.90;;;;;;5060122;28;20302;-75
2021/10/25 11:13:47;;;;;;;15.18;14.18;;;13.70;99.90;;;;;;5007755;28;20123;-76
2021/10/25 11:16:33;;;;;;;14.90;13.90;;;14.00;99.90;;;;;;4993731;28;20061;-76
2021/10/25 11:19:04;;;;;;;14.40;13.50;;;14.00;99.90;;;;;;5025907;28;20316;-76
2021/10/25 11:21:33;;;;;;;14.63;13.73;;;14.20;99.90;;;;;;5026775;28;20045;-75
2021/10/25 11:24:13;;;;;;;14.50;13.40;;;14.20;99.90;;;;;;5027677;28;20049;-75
2021/10/25 11:26:42;;;;;;;14.75;13.85;;;14.30;99.90;;;;;;5030080;28;20055;-76
2021/10/25 11:29:24;;;;;;;13.20;12.40;;;14.30;99.90;;;;;;5030227;28;20064;-76
2021/10/25 11:31:54;;;;;;;13.85;12.95;;;14.20;99.90;;;;;;5012212;28;20052;-76
2021/10/25 11:34:32;;;;;;;14.27;13.18;;;14.00;99.90;;;;;;5030072;28;20535;-77
2021/10/25 11:37:17;;;;;;;13.27;12.38;;;13.90;99.90;;;;;;5003505;28;20337;-76
2021/10/25 11:40:07;;;;;;;13.75;12.73;;;13.70;99.90;;;;;;5043543;28;20045;-76
2021/10/25 11:42:45;;;;;;;12.85;12.05;;;13.70;99.90;;;;;;5010528;28;20266;-76
2021/10/25 11:45:17;;;;;;;11.77;11.00;;;13.80;99.90;;;;;;5027756;28;20087;-76
2021/10/25 11:47:46;;;;;;;12.93;12.02;;;13.80;99.90;;;;;;5010201;28;20057;-77
2021/10/25 11:50:23;;;;;;;11.95;11.20;;;13.90;99.90;;;;;;5040094;28;20519;-76
2021/10/25 11:52:54;;;;;;;14.18;13.00;;;14.00;99.90;;;;;;5046972;28;20052;-76
2021/10/25 11:55:26;;;;;;;14.02;12.77;;;14.00;99.90;;;;;;5023011;28;20061;-76
2021/10/25 11:57:57;;;;;;;13.52;12.65;;;13.90;99.90;;;;;;5047680;28;20064;-76
2021/10/25 12:00:26;;;;;;;13.02;12.27;;;13.80;99.90;;;;;;5046509;28;20380;-76
2021/10/25 12:03:21;;;;;;;13.70;12.90;;;14.00;99.90;;;;;;4996678;28;20045;-76
2021/10/25 12:05:51;;;;;;;13.90;13.10;;;14.00;99.90;;;;;;5028453;28;20049;-76
2021/10/25 12:08:17;;;;;;;12.98;12.27;;;14.10;99.90;;;;;;5029276;28;20455;-76
2021/10/25 12:10:47;;;;;;;14.00;13.20;;;14.10;99.90;;;;;;5045177;28;20048;-76
2021/10/25 12:13:16;;;;;;;13.45;12.75;;;14.10;99.90;;;;;;5024842;28;20053;-75
2021/10/25 12:15:54;;;;;;;12.88;12.18;;;14.20;99.90;;;;;;5008825;28;20107;-77
2021/10/25 12:18:24;;;;;;;13.57;12.85;;;14.20;99.90;;;;;;5009747;28;20288;-76
2021/10/25 12:20:51;;;;;;;14.57;13.50;;;14.10;99.90;;;;;;5028068;28;20049;-76
2021/10/25 12:23:24;;;;;;;13.65;12.88;;;14.00;99.90;;;;;;5011496;28;20411;-76
2021/10/25 12:26:03;;;;;;;14.57;13.45;;;14.20;99.90;;;;;;5027938;28;20192;-76
2021/10/25 12:28:35;;;;;;;12.98;12.13;;;14.20;99.90;;;;;;5025359;28;20053;-76
2021/10/25 12:31:15;;;;;;;13.93;12.82;;;14.30;99.90;;;;;;5024397;28;20045;-76
2021/10/25 12:33:45;;;;;;;16.13;14.98;;;14.20;99.90;;;;;;5026027;28;20080;-76
2021/10/25 12:36:20;;;;;;;13.80;12.88;;;14.30;99.90;;;;;;5017765;28;20061;-75
2021/10/25 12:38:50;;;;;;;;;;;14.30;99.90;;;;;;5012842;28;20278;-76
2021/10/25 12:41:17;;;;;;;13.55;12.65;;;14.30;99.90;;;;;;5042757;28;19927;-76
2021/10/25 12:43:47;;;;;;;13.23;12.48;;;14.20;99.90;;;;;;5046015;28;20064;-76
2021/10/25 12:46:17;;;;;;;13.43;12.75;;;14.30;99.90;;;;;;5044818;28;20053;-77
2021/10/25 12:48:47;;;;;;;13.82;13.07;;;14.30;99.90;;;;;;4996038;28;20080;-76
2021/10/25 12:51:16;;;;;;;14.35;13.50;;;14.40;99.90;;;;;;5014090;28;20206;-76
2021/10/25 12:53:46;;;;;;;14.45;13.65;;;14.30;99.90;;;;;;5009470;28;20037;-76
2021/10/25 12:56:13;;;;;;;14.25;12.90;;;14.40;99.90;;;;;;5011380;28;20473;-75
2021/10/25 12:58:40;;;;;;;13.68;12.77;;;14.40;99.90;;;;;;5027373;28;20492;-76
2021/10/25 13:01:09;;;;;;;14.85;13.57;;;14.40;99.90;;;;;;5026581;28;20049;-76
2021/10/25 13:03:37;;;;;;;13.82;12.82;;;14.60;99.90;;;;;;5013848;28;20052;-76
2021/10/25 13:06:09;;;;;;;15.27;13.98;;;14.40;99.90;;;;;;5027778;28;20125;-76
2021/10/25 13:08:38;;;;;;;14.32;13.52;;;14.30;99.90;;;;;;5028577;28;20045;-76
2021/10/25 13:11:06;;;;;;;15.15;14.15;;;14.30;99.90;;;;;;5043228;28;20049;-75
2021/10/25 13:13:33;;;;;;;14.80;13.80;;;14.40;99.90;;;;;;5024616;28;20462;-75
2021/10/25 13:16:01;;;;;;;14.82;13.90;;;14.40;99.90;;;;;;5027962;28;20297;-75
2021/10/25 13:18:31;;;;;;;14.10;13.38;;;14.50;99.90;;;;;;5043978;28;20110;-75
2021/10/25 13:20:58;;;;;;;15.20;13.93;;;14.60;99.90;;;;;;5029787;28;20057;-75
2021/10/25 13:23:25;;;;;;;15.23;14.00;;;14.60;99.90;;;;;;4994473;28;20053;-76
2021/10/25 13:25:52;;;;;;;13.88;12.98;;;14.70;99.90;;;;;;5014640;28;20594;-76
2021/10/25 13:28:19;;;;;;;14.57;13.45;;;14.60;99.90;;;;;;5050812;28;20052;-76
2021/10/25 13:30:45;;;;;;;15.70;14.43;;;14.50;99.90;;;;;;5031209;28;20061;-75
2021/10/25 13:33:12;;;;;;;14.75;13.63;;;14.50;99.90;;;;;;5031512;28;20052;-75
2021/10/25 13:35:39;;;;;;;14.77;13.70;;;14.30;99.90;;;;;;5031183;28;20484;-75
2021/10/25 13:38:07;;;;;;;13.38;12.57;;;14.50;99.90;;;;;;5047225;28;20274;-75
2021/10/25 13:40:34;;;;;;;14.18;13.10;;;14.60;99.90;;;;;;5048208;28;20053;-75
2021/10/25 13:43:01;;;;;;;13.77;12.88;;;14.70;99.90;;;;;;5001912;28;20053;-76
2021/10/25 13:45:29;;;;;;;14.10;13.27;;;14.60;99.90;;;;;;5031101;28;20045;-76
2021/10/25 13:47:56;;;;;;;13.73;12.82;;;14.60;99.90;;;;;;5015239;28;20045;-76
2021/10/25 13:50:25;;;;;;;13.75;12.85;;;14.50;99.90;;;;;;5048902;28;20057;-76
2021/10/25 13:52:51;;;;;;;13.80;12.70;;;14.40;99.90;;;;;;5030071;28;20060;-75
2021/10/25 13:55:18;;;;;;;13.60;12.50;;;14.30;99.90;;;;;;5048439;28;20495;-76
2021/10/25 13:57:48;;;;;;;13.98;12.82;;;14.10;99.90;;;;;;5028870;28;20144;-74
2021/10/25 14:00:16;;;;;;;14.02;13.05;;;13.80;99.90;;;;;;5023428;28;20052;-75
2021/10/25 14:02:44;;;;;;;13.90;12.55;;;13.80;99.90;;;;;;5015045;28;20045;-75
2021/10/25 14:05:17;;;;;;;13.25;12.45;;;13.70;99.90;;;;;;5027236;28;20037;-75
2021/10/25 14:07:44;;;;;;;14.82;13.52;;;13.60;99.90;;;;;;5059056;28;20056;-76
2021/10/25 14:13:05;;;;;;;13.13;11.77;;;13.60;99.90;;;;;;5049152;28;20053;-76
2021/10/25 14:15:43;;;;;;;13.93;12.88;;;13.50;99.90;;;;;;5014734;28;20049;-75
2021/10/25 14:18:11;;;;;;;13.35;12.35;;;13.50;99.90;;;;;;5022165;28;20053;-76
2021/10/25 14:20:37;;;;;;;13.35;12.35;;;13.40;99.90;;;;;;5049076;28;20134;-76
2021/10/25 14:23:06;;;;;;;13.48;12.57;;;13.40;99.90;;;;;;5030408;28;20053;-76
2021/10/25 14:25:33;;;;;;;12.45;11.55;;;13.50;99.90;;;;;;5047481;28;20818;-76
2021/10/25 14:28:02;;;;;;;13.27;12.18;;;13.60;99.90;;;;;;5047574;28;20056;-76